sensor_id;sensor_type;location;lat;lon;timestamp;temperature;humidity
23087;DHT22;11712;51.134;4.156;2023-02-24T00:00:59;5.50;99.90
23087;DHT22;11712;51.134;4.156;2023-02-24T00:03:34;5.40;99.90
23087;DHT22;11712;51.134;4.156;2023-02-24T00:06:03;5.40;99.90
23087;DHT22;11712;51.134;4.156;2023-02-24T00:08:34;5.30;99.90
23087;DHT22;11712;51.134;4.156;2023-02-24T00:11:06;5.30;99.90
23087;DHT22;11712;51.134;4.156;2023-02-24T00:13:33;5.30;99.90
23087;DHT22;11712;51.134;4.156;2023-02-24T00:16:01;5.20;99.90
23087;DHT22;11712;51.134;4.156;2023-02-24T00:18:30;5.20;99.90
23087;DHT22;11712;51.134;4.156;2023-02-24T00:21:09;5.10;99.90
23087;DHT22;11712;51.134;4.156;2023-02-24T00:23:36;5.10;99.90
23087;DHT22;11712;51.134;4.156;2023-02-24T00:26:04;5.10;99.90
23087;DHT22;11712;51.134;4.156;2023-02-24T00:28:32;5.10;99.90
23087;DHT22;11712;51.134;4.156;2023-02-24T00:31:13;5.10;99.90
23087;DHT22;11712;51.134;4.156;2023-02-24T00:33:41;5.10;99.90
23087;DHT22;11712;51.134;4.156;2023-02-24T00:38:36;5.10;99.90
23087;DHT22;11712;51.134;4.156;2023-02-24T00:41:10;5.20;99.90
23087;DHT22;11712;51.134;4.156;2023-02-24T00:43:39;5.20;99.90
23087;DHT22;11712;51.134;4.156;2023-02-24T00:46:05;5.20;99.90
23087;DHT22;11712;51.134;4.156;2023-02-24T00:48:39;5.20;99.90
23087;DHT22;11712;51.134;4.156;2023-02-24T00:51:07;5.20;99.90
23087;DHT22;11712;51.134;4.156;2023-02-24T00:53:33;5.20;99.90
23087;DHT22;11712;51.134;4.156;2023-02-24T00:55:59;5.20;99.90
23087;DHT22;11712;51.134;4.156;2023-02-24T00:58:26;5.30;99.90
23087;DHT22;11712;51.134;4.156;2023-02-24T01:00:57;5.40;99.90
23087;DHT22;11712;51.134;4.156;2023-02-24T01:03:23;5.50;99.90
23087;DHT22;11712;51.134;4.156;2023-02-24T01:05:51;5.60;99.90
23087;DHT22;11712;51.134;4.156;2023-02-24T01:08:17;5.60;99.90
23087;DHT22;11712;51.134;4.156;2023-02-24T01:10:59;5.60;99.90
23087;DHT22;11712;51.134;4.156;2023-02-24T01:13:44;5.60;99.90
23087;DHT22;11712;51.134;4.156;2023-02-24T01:16:10;5.60;99.90
23087;DHT22;11712;51.134;4.156;2023-02-24T01:18:44;5.60;99.90
23087;DHT22;11712;51.134;4.156;2023-02-24T01:21:15;5.60;99.90
23087;DHT22;11712;51.134;4.156;2023-02-24T01:23:42;5.60;99.90
23087;DHT22;11712;51.134;4.156;2023-02-24T01:26:09;5.70;99.90
23087;DHT22;11712;51.134;4.156;2023-02-24T01:28:35;5.80;99.90
23087;DHT22;11712;51.134;4.156;2023-02-24T01:31:03;6.00;99.90
23087;DHT22;11712;51.134;4.156;2023-02-24T01:33:33;6.10;99.90
23087;DHT22;11712;51.134;4.156;2023-02-24T01:36:16;6.10;99.90
23087;DHT22;11712;51.134;4.156;2023-02-24T01:38:43;6.20;99.90
23087;DHT22;11712;51.134;4.156;2023-02-24T01:41:14;6.20;99.90
23087;DHT22;11712;51.134;4.156;2023-02-24T01:46:39;6.50;99.90
23087;DHT22;11712;51.134;4.156;2023-02-24T01:49:31;6.50;99.90
23087;DHT22;11712;51.134;4.156;2023-02-24T01:52:11;6.60;99.90
23087;DHT22;11712;51.134;4.156;2023-02-24T01:54:41;6.70;99.90
23087;DHT22;11712;51.134;4.156;2023-02-24T01:57:09;6.70;99.90
23087;DHT22;11712;51.134;4.156;2023-02-24T01:59:36;6.80;99.90
23087;DHT22;11712;51.134;4.156;2023-02-24T02:02:04;6.80;99.90
23087;DHT22;11712;51.134;4.156;2023-02-24T02:04:43;6.80;99.90
23087;DHT22;11712;51.134;4.156;2023-02-24T02:07:12;6.60;99.90
23087;DHT22;11712;51.134;4.156;2023-02-24T02:09:39;6.30;99.90
23087;DHT22;11712;51.134;4.156;2023-02-24T02:12:09;6.10;99.90
23087;DHT22;11712;51.134;4.156;2023-02-24T02:14:40;6.00;99.90
23087;DHT22;11712;51.134;4.156;2023-02-24T02:20:00;6.10;99.90
23087;DHT22;11712;51.134;4.156;2023-02-24T02:25:42;6.10;99.90
23087;DHT22;11712;51.134;4.156;2023-02-24T02:28:56;6.30;99.90
23087;DHT22;11712;51.134;4.156;2023-02-24T02:39:50;6.50;99.90
23087;DHT22;11712;51.134;4.156;2023-02-24T02:42:57;6.50;99.90
23087;DHT22;11712;51.134;4.156;2023-02-24T02:50:40;6.30;99.90
23087;DHT22;11712;51.134;4.156;2023-02-24T02:53:20;6.30;99.90
23087;DHT22;11712;51.134;4.156;2023-02-24T02:56:26;6.60;99.90
23087;DHT22;11712;51.134;4.156;2023-02-24T02:58:55;7.00;99.90
23087;DHT22;11712;51.134;4.156;2023-02-24T03:01:28;7.20;99.90
23087;DHT22;11712;51.134;4.156;2023-02-24T03:03:58;7.30;99.90
23087;DHT22;11712;51.134;4.156;2023-02-24T03:06:31;7.30;99.90
23087;DHT22;11712;51.134;4.156;2023-02-24T03:09:31;7.00;99.90
23087;DHT22;11712;51.134;4.156;2023-02-24T03:12:04;7.00;99.90
23087;DHT22;11712;51.134;4.156;2023-02-24T03:14:35;6.90;99.90
23087;DHT22;11712;51.134;4.156;2023-02-24T03:17:07;6.90;99.90
23087;DHT22;11712;51.134;4.156;2023-02-24T03:19:36;7.10;99.90
23087;DHT22;11712;51.134;4.156;2023-02-24T03:22:10;7.20;99.90
23087;DHT22;11712;51.134;4.156;2023-02-24T03:24:40;7.30;99.90
23087;DHT22;11712;51.134;4.156;2023-02-24T03:27:22;7.30;99.90
23087;DHT22;11712;51.134;4.156;2023-02-24T03:29:57;7.40;99.90
23087;DHT22;11712;51.134;4.156;2023-02-24T03:32:38;7.50;99.90
23087;DHT22;11712;51.134;4.156;2023-02-24T03:35:15;7.20;99.90
23087;DHT22;11712;51.134;4.156;2023-02-24T03:37:42;7.00;99.90
23087;DHT22;11712;51.134;4.156;2023-02-24T03:40:10;7.00;99.90
23087;DHT22;11712;51.134;4.156;2023-02-24T03:42:58;6.80;99.90
23087;DHT22;11712;51.134;4.156;2023-02-24T03:45:31;6.70;99.90
23087;DHT22;11712;51.134;4.156;2023-02-24T03:47:59;6.50;99.90
23087;DHT22;11712;51.134;4.156;2023-02-24T03:50:27;6.40;99.90
23087;DHT22;11712;51.134;4.156;2023-02-24T03:56:02;6.20;99.90
23087;DHT22;11712;51.134;4.156;2023-02-24T03:58:58;6.20;99.90
23087;DHT22;11712;51.134;4.156;2023-02-24T04:01:36;6.40;99.90
23087;DHT22;11712;51.134;4.156;2023-02-24T04:04:26;6.50;99.90
23087;DHT22;11712;51.134;4.156;2023-02-24T04:09:33;6.40;99.90
23087;DHT22;11712;51.134;4.156;2023-02-24T04:14:53;6.10;99.90
23087;DHT22;11712;51.134;4.156;2023-02-24T04:17:28;6.20;99.90
23087;DHT22;11712;51.134;4.156;2023-02-24T04:19:58;6.10;99.90
23087;DHT22;11712;51.134;4.156;2023-02-24T04:22:26;6.10;99.90
23087;DHT22;11712;51.134;4.156;2023-02-24T04:24:57;6.00;99.90
23087;DHT22;11712;51.134;4.156;2023-02-24T04:27:25;5.90;99.90
23087;DHT22;11712;51.134;4.156;2023-02-24T04:29:54;5.80;99.90
23087;DHT22;11712;51.134;4.156;2023-02-24T04:32:25;5.80;99.90
23087;DHT22;11712;51.134;4.156;2023-02-24T04:34:52;5.90;99.90
23087;DHT22;11712;51.134;4.156;2023-02-24T04:37:18;5.90;99.90
23087;DHT22;11712;51.134;4.156;2023-02-24T04:39:48;5.80;99.90
23087;DHT22;11712;51.134;4.156;2023-02-24T04:42:16;5.80;99.90
23087;DHT22;11712;51.134;4.156;2023-02-24T04:44:44;5.80;99.90
23087;DHT22;11712;51.134;4.156;2023-02-24T04:47:11;5.70;99.90
23087;DHT22;11712;51.134;4.156;2023-02-24T04:49:36;5.70;99.90
23087;DHT22;11712;51.134;4.156;2023-02-24T04:52:09;5.50;99.90
23087;DHT22;11712;51.134;4.156;2023-02-24T04:54:35;5.40;99.90
23087;DHT22;11712;51.134;4.156;2023-02-24T04:57:00;5.20;99.90
23087;DHT22;11712;51.134;4.156;2023-02-24T04:59:26;5.10;99.90
23087;DHT22;11712;51.134;4.156;2023-02-24T05:01:52;5.10;99.90
23087;DHT22;11712;51.134;4.156;2023-02-24T05:04:18;5.00;99.90
23087;DHT22;11712;51.134;4.156;2023-02-24T05:06:44;4.90;99.90
23087;DHT22;11712;51.134;4.156;2023-02-24T05:09:15;4.80;99.90
23087;DHT22;11712;51.134;4.156;2023-02-24T05:11:48;4.60;99.90
23087;DHT22;11712;51.134;4.156;2023-02-24T05:14:17;4.40;99.90
23087;DHT22;11712;51.134;4.156;2023-02-24T05:16:45;4.30;99.90
23087;DHT22;11712;51.134;4.156;2023-02-24T05:19:14;4.30;99.90
23087;DHT22;11712;51.134;4.156;2023-02-24T05:21:58;4.30;99.90
23087;DHT22;11712;51.134;4.156;2023-02-24T05:24:24;4.30;99.90
23087;DHT22;11712;51.134;4.156;2023-02-24T05:26:52;4.20;99.90
23087;DHT22;11712;51.134;4.156;2023-02-24T05:29:26;4.20;99.90
23087;DHT22;11712;51.134;4.156;2023-02-24T05:31:53;4.10;99.90
23087;DHT22;11712;51.134;4.156;2023-02-24T05:34:20;4.10;99.90
23087;DHT22;11712;51.134;4.156;2023-02-24T05:36:46;4.10;99.90
23087;DHT22;11712;51.134;4.156;2023-02-24T05:39:13;4.00;99.90
23087;DHT22;11712;51.134;4.156;2023-02-24T05:41:44;4.00;99.90
23087;DHT22;11712;51.134;4.156;2023-02-24T05:44:17;4.00;99.90
23087;DHT22;11712;51.134;4.156;2023-02-24T05:46:50;3.90;99.90
23087;DHT22;11712;51.134;4.156;2023-02-24T05:49:22;3.90;99.90
23087;DHT22;11712;51.134;4.156;2023-02-24T05:51:53;3.80;99.90
23087;DHT22;11712;51.134;4.156;2023-02-24T05:54:31;3.80;99.90
23087;DHT22;11712;51.134;4.156;2023-02-24T05:57:03;3.90;99.90
23087;DHT22;11712;51.134;4.156;2023-02-24T05:59:29;3.90;99.90
23087;DHT22;11712;51.134;4.156;2023-02-24T06:02:02;3.80;99.90
23087;DHT22;11712;51.134;4.156;2023-02-24T06:04:35;3.80;99.90
23087;DHT22;11712;51.134;4.156;2023-02-24T06:07:16;3.80;99.90
23087;DHT22;11712;51.134;4.156;2023-02-24T06:09:53;3.80;99.90
23087;DHT22;11712;51.134;4.156;2023-02-24T06:12:28;3.80;99.90
23087;DHT22;11712;51.134;4.156;2023-02-24T06:14:54;3.60;99.90
23087;DHT22;11712;51.134;4.156;2023-02-24T06:17:21;3.50;99.90
23087;DHT22;11712;51.134;4.156;2023-02-24T06:19:50;3.50;99.90
23087;DHT22;11712;51.134;4.156;2023-02-24T06:22:17;3.50;99.90
23087;DHT22;11712;51.134;4.156;2023-02-24T06:24:45;3.50;99.90
23087;DHT22;11712;51.134;4.156;2023-02-24T06:27:13;3.50;99.90
23087;DHT22;11712;51.134;4.156;2023-02-24T06:29:47;3.40;99.90
23087;DHT22;11712;51.134;4.156;2023-02-24T06:32:18;3.40;99.90
23087;DHT22;11712;51.134;4.156;2023-02-24T06:34:44;3.30;99.90
23087;DHT22;11712;51.134;4.156;2023-02-24T06:37:12;3.40;99.90
23087;DHT22;11712;51.134;4.156;2023-02-24T06:39:38;3.40;99.90
23087;DHT22;11712;51.134;4.156;2023-02-24T06:42:05;3.30;99.90
23087;DHT22;11712;51.134;4.156;2023-02-24T06:44:35;3.20;99.90
23087;DHT22;11712;51.134;4.156;2023-02-24T06:47:02;3.20;99.90
23087;DHT22;11712;51.134;4.156;2023-02-24T06:49:28;3.20;99.90
23087;DHT22;11712;51.134;4.156;2023-02-24T06:51:55;3.20;99.90
23087;DHT22;11712;51.134;4.156;2023-02-24T06:54:22;3.10;99.90
23087;DHT22;11712;51.134;4.156;2023-02-24T06:56:50;3.20;99.90
23087;DHT22;11712;51.134;4.156;2023-02-24T06:59:17;3.20;99.90
23087;DHT22;11712;51.134;4.156;2023-02-24T07:01:54;3.20;99.90
23087;DHT22;11712;51.134;4.156;2023-02-24T07:04:21;3.20;99.90
23087;DHT22;11712;51.134;4.156;2023-02-24T07:06:55;3.30;99.90
23087;DHT22;11712;51.134;4.156;2023-02-24T07:09:24;3.20;99.90
23087;DHT22;11712;51.134;4.156;2023-02-24T07:11:52;3.20;99.90
23087;DHT22;11712;51.134;4.156;2023-02-24T07:14:27;3.10;99.90
23087;DHT22;11712;51.134;4.156;2023-02-24T07:16:56;3.20;99.90
23087;DHT22;11712;51.134;4.156;2023-02-24T07:19:28;3.20;99.90
23087;DHT22;11712;51.134;4.156;2023-02-24T07:21:58;3.30;99.90
23087;DHT22;11712;51.134;4.156;2023-02-24T07:24:33;3.30;99.90
23087;DHT22;11712;51.134;4.156;2023-02-24T07:27:09;3.40;99.90
23087;DHT22;11712;51.134;4.156;2023-02-24T07:29:36;3.40;99.90
23087;DHT22;11712;51.134;4.156;2023-02-24T07:32:04;3.40;99.90
23087;DHT22;11712;51.134;4.156;2023-02-24T07:34:31;3.50;99.90
23087;DHT22;11712;51.134;4.156;2023-02-24T07:36:58;3.50;99.90
23087;DHT22;11712;51.134;4.156;2023-02-24T07:39:27;3.60;99.90
23087;DHT22;11712;51.134;4.156;2023-02-24T07:41:53;3.80;99.90
23087;DHT22;11712;51.134;4.156;2023-02-24T07:44:20;3.90;99.90
23087;DHT22;11712;51.134;4.156;2023-02-24T07:46:48;3.90;99.90
23087;DHT22;11712;51.134;4.156;2023-02-24T07:49:15;3.90;99.90
23087;DHT22;11712;51.134;4.156;2023-02-24T07:51:45;4.00;99.90
23087;DHT22;11712;51.134;4.156;2023-02-24T07:54:12;3.90;99.90
23087;DHT22;11712;51.134;4.156;2023-02-24T07:56:40;4.00;99.90
23087;DHT22;11712;51.134;4.156;2023-02-24T07:59:26;4.10;99.90
23087;DHT22;11712;51.134;4.156;2023-02-24T08:01:52;4.20;99.90
23087;DHT22;11712;51.134;4.156;2023-02-24T08:04:22;4.30;99.90
23087;DHT22;11712;51.134;4.156;2023-02-24T08:06:48;4.30;99.90
23087;DHT22;11712;51.134;4.156;2023-02-24T08:09:25;4.40;99.90
23087;DHT22;11712;51.134;4.156;2023-02-24T08:14:43;4.50;99.90
23087;DHT22;11712;51.134;4.156;2023-02-24T08:17:16;4.60;99.90
23087;DHT22;11712;51.134;4.156;2023-02-24T08:19:46;4.70;99.90
23087;DHT22;11712;51.134;4.156;2023-02-24T08:22:13;4.80;99.90
23087;DHT22;11712;51.134;4.156;2023-02-24T08:27:24;4.90;99.90
23087;DHT22;11712;51.134;4.156;2023-02-24T08:29:51;5.00;99.90
23087;DHT22;11712;51.134;4.156;2023-02-24T08:37:30;5.20;99.90
23087;DHT22;11712;51.134;4.156;2023-02-24T08:40:16;5.30;99.90
23087;DHT22;11712;51.134;4.156;2023-02-24T08:43:08;5.40;99.90
23087;DHT22;11712;51.134;4.156;2023-02-24T08:46:22;5.40;99.90
23087;DHT22;11712;51.134;4.156;2023-02-24T08:48:58;5.40;99.90
23087;DHT22;11712;51.134;4.156;2023-02-24T08:51:33;5.50;99.90
23087;DHT22;11712;51.134;4.156;2023-02-24T08:54:03;5.50;99.90
23087;DHT22;11712;51.134;4.156;2023-02-24T08:56:31;5.70;99.90
23087;DHT22;11712;51.134;4.156;2023-02-24T08:59:01;5.70;99.90
23087;DHT22;11712;51.134;4.156;2023-02-24T09:01:38;5.80;99.90
23087;DHT22;11712;51.134;4.156;2023-02-24T09:04:05;5.80;99.90
23087;DHT22;11712;51.134;4.156;2023-02-24T09:06:46;5.80;99.90
23087;DHT22;11712;51.134;4.156;2023-02-24T09:09:15;6.00;99.90
23087;DHT22;11712;51.134;4.156;2023-02-24T09:12:01;6.10;99.90
23087;DHT22;11712;51.134;4.156;2023-02-24T09:14:28;6.10;99.90
23087;DHT22;11712;51.134;4.156;2023-02-24T09:16:57;6.30;99.90
23087;DHT22;11712;51.134;4.156;2023-02-24T09:22:25;6.30;99.90
23087;DHT22;11712;51.134;4.156;2023-02-24T09:25:01;6.30;99.90
23087;DHT22;11712;51.134;4.156;2023-02-24T09:27:48;6.40;99.90
23087;DHT22;11712;51.134;4.156;2023-02-24T09:30:36;6.40;99.90
23087;DHT22;11712;51.134;4.156;2023-02-24T09:33:15;6.60;99.90
23087;DHT22;11712;51.134;4.156;2023-02-24T09:36:00;6.60;99.90
23087;DHT22;11712;51.134;4.156;2023-02-24T09:38:46;6.60;99.90
23087;DHT22;11712;51.134;4.156;2023-02-24T09:41:48;6.60;99.90
23087;DHT22;11712;51.134;4.156;2023-02-24T09:44:43;6.80;99.90
23087;DHT22;11712;51.134;4.156;2023-02-24T09:52:46;6.80;99.90
23087;DHT22;11712;51.134;4.156;2023-02-24T09:55:36;6.90;99.90
23087;DHT22;11712;51.134;4.156;2023-02-24T10:00:56;7.10;99.90
23087;DHT22;11712;51.134;4.156;2023-02-24T10:03:29;7.10;99.90
23087;DHT22;11712;51.134;4.156;2023-02-24T10:06:17;7.10;99.90
23087;DHT22;11712;51.134;4.156;2023-02-24T10:09:16;7.30;99.90
23087;DHT22;11712;51.134;4.156;2023-02-24T10:12:13;7.30;99.90
23087;DHT22;11712;51.134;4.156;2023-02-24T10:15:08;7.30;99.90
23087;DHT22;11712;51.134;4.156;2023-02-24T10:17:59;7.40;99.90
23087;DHT22;11712;51.134;4.156;2023-02-24T10:20:36;7.30;99.90
23087;DHT22;11712;51.134;4.156;2023-02-24T10:23:14;7.20;99.90
23087;DHT22;11712;51.134;4.156;2023-02-24T10:25:53;7.10;99.90
23087;DHT22;11712;51.134;4.156;2023-02-24T10:28:27;7.20;99.90
23087;DHT22;11712;51.134;4.156;2023-02-24T10:31:10;7.20;99.90
23087;DHT22;11712;51.134;4.156;2023-02-24T10:33:51;7.20;99.90
23087;DHT22;11712;51.134;4.156;2023-02-24T10:36:21;7.40;99.90
23087;DHT22;11712;51.134;4.156;2023-02-24T10:39:22;7.40;99.90
23087;DHT22;11712;51.134;4.156;2023-02-24T10:42:03;7.40;99.90
23087;DHT22;11712;51.134;4.156;2023-02-24T10:44:47;7.30;99.90
23087;DHT22;11712;51.134;4.156;2023-02-24T10:47:28;7.40;99.90
23087;DHT22;11712;51.134;4.156;2023-02-24T10:49:59;7.40;99.90
23087;DHT22;11712;51.134;4.156;2023-02-24T10:52:37;7.60;99.90
23087;DHT22;11712;51.134;4.156;2023-02-24T11:00:47;7.90;99.90
23087;DHT22;11712;51.134;4.156;2023-02-24T11:03:28;8.10;99.90
23087;DHT22;11712;51.134;4.156;2023-02-24T11:06:03;8.10;99.90
23087;DHT22;11712;51.134;4.156;2023-02-24T11:08:31;8.10;99.90
23087;DHT22;11712;51.134;4.156;2023-02-24T11:11:28;8.10;99.90
23087;DHT22;11712;51.134;4.156;2023-02-24T11:14:16;7.90;99.90
23087;DHT22;11712;51.134;4.156;2023-02-24T11:17:01;7.80;99.90
23087;DHT22;11712;51.134;4.156;2023-02-24T11:20:03;8.00;99.90
23087;DHT22;11712;51.134;4.156;2023-02-24T11:22:44;8.00;99.90
23087;DHT22;11712;51.134;4.156;2023-02-24T11:25:24;7.90;99.90
23087;DHT22;11712;51.134;4.156;2023-02-24T11:27:51;7.90;99.90
23087;DHT22;11712;51.134;4.156;2023-02-24T11:39:18;8.20;99.90
23087;DHT22;11712;51.134;4.156;2023-02-24T11:41:53;8.20;99.90
23087;DHT22;11712;51.134;4.156;2023-02-24T11:44:25;8.10;99.90
23087;DHT22;11712;51.134;4.156;2023-02-24T11:47:00;8.00;99.90
23087;DHT22;11712;51.134;4.156;2023-02-24T11:49:46;8.20;99.90
23087;DHT22;11712;51.134;4.156;2023-02-24T11:52:24;8.20;99.90
23087;DHT22;11712;51.134;4.156;2023-02-24T11:54:56;8.10;99.90
23087;DHT22;11712;51.134;4.156;2023-02-24T11:57:58;8.00;99.90
23087;DHT22;11712;51.134;4.156;2023-02-24T12:00:26;8.10;99.90
23087;DHT22;11712;51.134;4.156;2023-02-24T12:02:54;8.20;99.90
23087;DHT22;11712;51.134;4.156;2023-02-24T12:05:25;8.10;99.90
23087;DHT22;11712;51.134;4.156;2023-02-24T12:07:58;8.10;99.90
23087;DHT22;11712;51.134;4.156;2023-02-24T12:10:26;8.20;99.90
23087;DHT22;11712;51.134;4.156;2023-02-24T12:18:33;8.30;99.90
23087;DHT22;11712;51.134;4.156;2023-02-24T12:21:08;8.40;99.90
23087;DHT22;11712;51.134;4.156;2023-02-24T12:23:38;8.30;99.90
23087;DHT22;11712;51.134;4.156;2023-02-24T12:35:16;8.20;99.90
23087;DHT22;11712;51.134;4.156;2023-02-24T12:40:50;7.90;99.90
23087;DHT22;11712;51.134;4.156;2023-02-24T12:49:03;8.20;99.90
23087;DHT22;11712;51.134;4.156;2023-02-24T12:52:12;8.20;99.90
23087;DHT22;11712;51.134;4.156;2023-02-24T12:57:47;8.00;99.90
23087;DHT22;11712;51.134;4.156;2023-02-24T13:00:23;7.80;99.90
23087;DHT22;11712;51.134;4.156;2023-02-24T13:03:03;7.80;99.90
23087;DHT22;11712;51.134;4.156;2023-02-24T13:05:49;7.70;99.90
23087;DHT22;11712;51.134;4.156;2023-02-24T13:08:48;7.50;99.90
23087;DHT22;11712;51.134;4.156;2023-02-24T13:11:19;7.30;99.90
23087;DHT22;11712;51.134;4.156;2023-02-24T13:16:33;7.00;99.90
23087;DHT22;11712;51.134;4.156;2023-02-24T13:22:39;7.00;99.90
23087;DHT22;11712;51.134;4.156;2023-02-24T13:24:54;6.90;99.90
23087;DHT22;11712;51.134;4.156;2023-02-24T13:27:33;7.00;99.90
23087;DHT22;11712;51.134;4.156;2023-02-24T13:32:43;7.00;99.90
23087;DHT22;11712;51.134;4.156;2023-02-24T13:37:39;7.00;99.90
23087;DHT22;11712;51.134;4.156;2023-02-24T13:45:22;7.00;99.90
23087;DHT22;11712;51.134;4.156;2023-02-24T14:01:25;7.10;99.90
23087;DHT22;11712;51.134;4.156;2023-02-24T14:04:19;7.10;99.90
23087;DHT22;11712;51.134;4.156;2023-02-24T14:06:49;7.20;99.90
23087;DHT22;11712;51.134;4.156;2023-02-24T14:09:27;7.20;99.90
23087;DHT22;11712;51.134;4.156;2023-02-24T14:12:07;7.20;99.90
23087;DHT22;11712;51.134;4.156;2023-02-24T14:14:37;7.20;99.90
23087;DHT22;11712;51.134;4.156;2023-02-24T14:17:03;7.20;99.90
23087;DHT22;11712;51.134;4.156;2023-02-24T14:19:29;7.20;99.90
23087;DHT22;11712;51.134;4.156;2023-02-24T14:21:58;7.20;99.90
23087;DHT22;11712;51.134;4.156;2023-02-24T14:24:26;7.30;99.90
23087;DHT22;11712;51.134;4.156;2023-02-24T14:26:55;7.20;99.90
23087;DHT22;11712;51.134;4.156;2023-02-24T14:29:26;7.30;99.90
23087;DHT22;11712;51.134;4.156;2023-02-24T14:31:56;7.30;99.90
23087;DHT22;11712;51.134;4.156;2023-02-24T14:34:25;7.30;99.90
23087;DHT22;11712;51.134;4.156;2023-02-24T14:36:57;7.30;99.90
23087;DHT22;11712;51.134;4.156;2023-02-24T14:39:27;7.30;99.90
23087;DHT22;11712;51.134;4.156;2023-02-24T14:42:23;7.30;99.90
23087;DHT22;11712;51.134;4.156;2023-02-24T14:44:52;7.30;99.90
23087;DHT22;11712;51.134;4.156;2023-02-24T14:47:21;7.40;99.90
23087;DHT22;11712;51.134;4.156;2023-02-24T14:49:56;7.40;99.90
23087;DHT22;11712;51.134;4.156;2023-02-24T14:57:49;7.50;99.90
23087;DHT22;11712;51.134;4.156;2023-02-24T15:00:20;7.50;99.90
23087;DHT22;11712;51.134;4.156;2023-02-24T15:02:59;7.60;99.90
23087;DHT22;11712;51.134;4.156;2023-02-24T15:05:26;7.60;99.90
23087;DHT22;11712;51.134;4.156;2023-02-24T15:07:52;7.60;99.90
23087;DHT22;11712;51.134;4.156;2023-02-24T15:10:24;7.70;99.90
23087;DHT22;11712;51.134;4.156;2023-02-24T15:13:13;7.70;99.90
23087;DHT22;11712;51.134;4.156;2023-02-24T15:15:40;7.70;99.90
23087;DHT22;11712;51.134;4.156;2023-02-24T15:18:27;7.70;99.90
23087;DHT22;11712;51.134;4.156;2023-02-24T15:21:21;7.80;99.90
23087;DHT22;11712;51.134;4.156;2023-02-24T15:23:47;7.80;99.90
23087;DHT22;11712;51.134;4.156;2023-02-24T15:27:36;7.80;99.90
23087;DHT22;11712;51.134;4.156;2023-02-24T15:30:52;7.80;99.90
23087;DHT22;11712;51.134;4.156;2023-02-24T15:33:21;7.80;99.90
23087;DHT22;11712;51.134;4.156;2023-02-24T15:35:50;7.80;99.90
23087;DHT22;11712;51.134;4.156;2023-02-24T15:38:34;7.80;99.90
23087;DHT22;11712;51.134;4.156;2023-02-24T15:41:03;8.10;99.90
23087;DHT22;11712;51.134;4.156;2023-02-24T15:45:57;8.30;99.90
23087;DHT22;11712;51.134;4.156;2023-02-24T15:48:24;8.30;99.90
23087;DHT22;11712;51.134;4.156;2023-02-24T15:50:52;8.30;99.90
23087;DHT22;11712;51.134;4.156;2023-02-24T15:53:19;8.20;99.90
23087;DHT22;11712;51.134;4.156;2023-02-24T15:55:45;8.20;99.90
23087;DHT22;11712;51.134;4.156;2023-02-24T15:58:16;8.20;99.90
23087;DHT22;11712;51.134;4.156;2023-02-24T16:00:42;8.30;99.90
23087;DHT22;11712;51.134;4.156;2023-02-24T16:03:10;8.20;99.90
23087;DHT22;11712;51.134;4.156;2023-02-24T16:05:36;8.30;99.90
23087;DHT22;11712;51.134;4.156;2023-02-24T16:08:02;8.10;99.90
23087;DHT22;11712;51.134;4.156;2023-02-24T16:10:29;8.20;99.90
23087;DHT22;11712;51.134;4.156;2023-02-24T16:12:57;8.30;99.90
23087;DHT22;11712;51.134;4.156;2023-02-24T16:15:32;8.30;99.90
23087;DHT22;11712;51.134;4.156;2023-02-24T16:18:00;8.20;99.90
23087;DHT22;11712;51.134;4.156;2023-02-24T16:20:30;8.10;99.90
23087;DHT22;11712;51.134;4.156;2023-02-24T16:23:00;8.00;99.90
23087;DHT22;11712;51.134;4.156;2023-02-24T16:25:28;8.10;99.90
23087;DHT22;11712;51.134;4.156;2023-02-24T16:27:54;8.10;99.90
23087;DHT22;11712;51.134;4.156;2023-02-24T16:30:25;8.10;99.90
23087;DHT22;11712;51.134;4.156;2023-02-24T16:32:52;7.90;99.90
23087;DHT22;11712;51.134;4.156;2023-02-24T16:35:17;7.80;99.90
23087;DHT22;11712;51.134;4.156;2023-02-24T16:37:45;7.90;99.90
23087;DHT22;11712;51.134;4.156;2023-02-24T16:42:45;7.90;99.90
23087;DHT22;11712;51.134;4.156;2023-02-24T16:45:10;7.80;99.90
23087;DHT22;11712;51.134;4.156;2023-02-24T16:47:36;7.80;99.90
23087;DHT22;11712;51.134;4.156;2023-02-24T16:50:02;7.90;99.90
23087;DHT22;11712;51.134;4.156;2023-02-24T16:52:28;7.90;99.90
23087;DHT22;11712;51.134;4.156;2023-02-24T16:54:54;8.00;99.90
23087;DHT22;11712;51.134;4.156;2023-02-24T16:57:20;8.10;99.90
23087;DHT22;11712;51.134;4.156;2023-02-24T16:59:50;8.00;99.90
23087;DHT22;11712;51.134;4.156;2023-02-24T17:02:22;7.80;99.90
23087;DHT22;11712;51.134;4.156;2023-02-24T17:04:48;7.90;99.90
23087;DHT22;11712;51.134;4.156;2023-02-24T17:07:14;7.90;99.90
23087;DHT22;11712;51.134;4.156;2023-02-24T17:09:41;7.70;99.90
23087;DHT22;11712;51.134;4.156;2023-02-24T17:12:10;7.50;99.90
23087;DHT22;11712;51.134;4.156;2023-02-24T17:14:37;7.50;99.90
23087;DHT22;11712;51.134;4.156;2023-02-24T17:17:02;7.50;99.90
23087;DHT22;11712;51.134;4.156;2023-02-24T17:19:28;7.50;99.90
23087;DHT22;11712;51.134;4.156;2023-02-24T17:21:54;7.40;99.90
23087;DHT22;11712;51.134;4.156;2023-02-24T17:24:19;7.50;99.90
23087;DHT22;11712;51.134;4.156;2023-02-24T17:26:45;7.40;99.90
23087;DHT22;11712;51.134;4.156;2023-02-24T17:29:12;7.50;99.90
23087;DHT22;11712;51.134;4.156;2023-02-24T17:31:39;7.50;99.90
23087;DHT22;11712;51.134;4.156;2023-02-24T17:34:05;7.40;99.90
23087;DHT22;11712;51.134;4.156;2023-02-24T17:36:30;7.30;99.90
23087;DHT22;11712;51.134;4.156;2023-02-24T17:38:56;7.20;99.90
23087;DHT22;11712;51.134;4.156;2023-02-24T17:41:24;7.00;99.90
23087;DHT22;11712;51.134;4.156;2023-02-24T17:43:50;6.90;99.90
23087;DHT22;11712;51.134;4.156;2023-02-24T17:46:16;6.80;99.90
23087;DHT22;11712;51.134;4.156;2023-02-24T17:48:42;6.70;99.90
23087;DHT22;11712;51.134;4.156;2023-02-24T17:51:15;6.70;99.90
23087;DHT22;11712;51.134;4.156;2023-02-24T17:53:42;6.70;99.90
23087;DHT22;11712;51.134;4.156;2023-02-24T17:56:08;6.70;99.90
23087;DHT22;11712;51.134;4.156;2023-02-24T17:58:34;6.80;99.90
23087;DHT22;11712;51.134;4.156;2023-02-24T18:01:01;6.70;99.90
23087;DHT22;11712;51.134;4.156;2023-02-24T18:03:31;6.70;99.90
23087;DHT22;11712;51.134;4.156;2023-02-24T18:06:08;6.80;99.90
23087;DHT22;11712;51.134;4.156;2023-02-24T18:08:35;6.70;99.90
23087;DHT22;11712;51.134;4.156;2023-02-24T18:11:01;6.70;99.90
23087;DHT22;11712;51.134;4.156;2023-02-24T18:13:28;6.60;99.90
23087;DHT22;11712;51.134;4.156;2023-02-24T18:15:55;6.60;99.90
23087;DHT22;11712;51.134;4.156;2023-02-24T18:18:21;6.50;99.90
23087;DHT22;11712;51.134;4.156;2023-02-24T18:20:47;6.50;99.90
23087;DHT22;11712;51.134;4.156;2023-02-24T18:23:13;6.50;99.90
23087;DHT22;11712;51.134;4.156;2023-02-24T18:25:39;6.40;99.90
23087;DHT22;11712;51.134;4.156;2023-02-24T18:28:05;6.30;99.90
23087;DHT22;11712;51.134;4.156;2023-02-24T18:30:31;6.30;99.90
23087;DHT22;11712;51.134;4.156;2023-02-24T18:32:57;6.30;99.90
23087;DHT22;11712;51.134;4.156;2023-02-24T18:35:23;6.20;99.90
23087;DHT22;11712;51.134;4.156;2023-02-24T18:37:50;6.30;99.90